Time;durP1;ratioP1;P1;durP2;ratioP2;P2;SDS_P1;SDS_P2;PMS_P1;PMS_P2;Temp;Humidity;BMP_temperature;BMP_pressure;BME280_temperature;BME280_humidity;BME280_pressure;Samples;Min_cycle;Max_cycle;Signal;HPM_P1;HPM_P2
2024/03/08 00:00:28;;;;;;;;;;;4.60;99.90;;;;;;8403567;28;19920;-72
2024/03/08 00:04:30;;;;;;;;;;;4.50;99.90;;;;;;8415085;28;19925;-72
2024/03/08 00:08:31;;;;;;;;;;;4.50;99.90;;;;;;8409227;28;20287;-72
2024/03/08 00:12:33;;;;;;;;;;;4.50;99.90;;;;;;8423523;28;19920;-72
2024/03/08 00:16:35;;;;;;;;;;;4.40;99.90;;;;;;8410195;28;19920;-72
2024/03/08 00:20:37;;;;;;;;;;;4.40;99.90;;;;;;8423138;28;19942;-72
2024/03/08 00:24:57;;;;;;;;;;;4.40;99.90;;;;;;8415785;28;19924;-72
2024/03/08 00:28:59;;;;;;;;;;;4.30;99.90;;;;;;8424364;28;20399;-72
2024/03/08 00:33:01;;;;;;;;;;;4.20;99.90;;;;;;8410849;28;19920;-72
2024/03/08 00:37:04;;;;;;;;;;;4.20;99.90;;;;;;8398929;28;20290;-73
2024/03/08 00:41:06;;;;;;;;;;;4.20;99.90;;;;;;8422296;28;19923;-72
2024/03/08 00:45:07;;;;;;;;;;;4.10;99.90;;;;;;8422875;28;19920;-72
2024/03/08 00:49:09;;;;;;;;;;;4.10;99.90;;;;;;8406254;28;19924;-72
2024/03/08 00:53:11;;;;;;;;;;;4.00;99.90;;;;;;8408242;28;19920;-72
2024/03/08 00:57:13;;;;;;;;;;;4.00;99.90;;;;;;8416514;28;19955;-72
2024/03/08 01:01:15;;;;;;;;;;;3.90;99.90;;;;;;8409696;28;20375;-72
2024/03/08 01:05:17;;;;;;;;;;;3.90;99.90;;;;;;8403261;28;19959;-72
2024/03/08 01:09:21;;;;;;;;;;;3.80;99.90;;;;;;8421398;28;20359;-72
2024/03/08 01:13:23;;;;;;;;;;;3.80;99.90;;;;;;8404162;28;19996;-72
2024/03/08 01:17:25;;;;;;;;;;;3.80;99.90;;;;;;8408977;28;19920;-72
2024/03/08 01:21:26;;;;;;;;;;;3.70;99.90;;;;;;8422485;28;19943;-72
2024/03/08 01:25:28;;;;;;;;;;;3.70;99.90;;;;;;8422329;28;19927;-72
2024/03/08 01:29:30;;;;;;;;;;;3.70;99.90;;;;;;8421787;28;20268;-72
2024/03/08 01:33:40;;;;;;;;;;;3.60;99.90;;;;;;8419455;28;19973;-72
2024/03/08 01:37:42;;;;;;;;;;;3.60;99.90;;;;;;8419630;28;20444;-72
2024/03/08 01:51:40;;;;;;;;;;;3.40;99.90;;;;;;8430189;28;20331;-73
2024/03/08 01:55:42;;;;;;;;;;;3.40;99.90;;;;;;8434267;28;20360;-72
2024/03/08 02:00:10;;;;;;;;;;;3.40;99.90;;;;;;8428400;28;19920;-72
2024/03/08 02:04:12;;;;;;;;;;;3.30;99.90;;;;;;8431353;28;19920;-72
2024/03/08 02:08:14;;;;;;;;;;;3.30;99.90;;;;;;8395662;28;19963;-72
2024/03/08 02:12:16;;;;;;;;;;;3.20;99.90;;;;;;8424243;28;19927;-72
2024/03/08 02:16:22;;;;;;;;;;;3.20;99.90;;;;;;8397290;28;19920;-72
2024/03/08 02:20:24;;;;;;;;;;;3.20;99.90;;;;;;8410321;28;19923;-72
2024/03/08 02:24:25;;;;;;;;;;;3.10;99.90;;;;;;8413587;28;20642;-72
2024/03/08 02:28:27;;;;;;;;;;;3.10;99.90;;;;;;8427514;28;19920;-72
2024/03/08 02:32:30;;;;;;;;;;;3.10;99.90;;;;;;8412958;28;19920;-73
2024/03/08 02:36:34;;;;;;;;;;;3.00;99.90;;;;;;8413746;28;20381;-72
2024/03/08 02:40:36;;;;;;;;;;;3.00;99.90;;;;;;8405844;28;20340;-72
2024/03/08 02:44:44;;;;;;;;;;;2.90;99.90;;;;;;8425632;28;20431;-72
2024/03/08 02:48:46;;;;;;;;;;;2.90;99.90;;;;;;8415776;28;20319;-72
2024/03/08 02:52:48;;;;;;;;;;;2.80;99.90;;;;;;8425700;28;19926;-72
2024/03/08 02:56:50;;;;;;;;;;;2.80;99.90;;;;;;8424601;28;19935;-72
2024/03/08 03:00:52;;;;;;;;;;;2.80;99.90;;;;;;8411833;28;19919;-72
2024/03/08 03:04:55;;;;;;;;;;;2.70;99.90;;;;;;8406828;28;19920;-72
2024/03/08 03:08:57;;;;;;;;;;;2.70;99.90;;;;;;8404820;28;19919;-72
2024/03/08 03:12:59;;;;;;;;;;;2.70;99.90;;;;;;8423575;28;20379;-72
2024/03/08 03:17:02;;;;;;;;;;;2.70;99.90;;;;;;8398938;28;19927;-72
2024/03/08 03:21:07;;;;;;;;;;;2.60;99.90;;;;;;8418831;28;19920;-72
2024/03/08 03:25:33;;;;;;;;;;;2.60;99.90;;;;;;8423875;28;20256;-72
2024/03/08 03:29:34;;;;;;;;;;;2.60;99.90;;;;;;8402978;28;19973;-72
2024/03/08 03:33:36;;;;;;;;;;;2.50;99.90;;;;;;8422949;28;19920;-72
2024/03/08 03:37:39;;;;;;;;;;;2.50;99.90;;;;;;8418870;28;19936;-72
2024/03/08 03:41:42;;;;;;;;;;;2.50;99.90;;;;;;8399748;28;19977;-72
2024/03/08 03:45:43;;;;;;;;;;;2.40;99.90;;;;;;8424364;28;20403;-72
2024/03/08 03:49:45;;;;;;;;;;;2.40;99.90;;;;;;8422944;28;19924;-72
2024/03/08 03:53:47;;;;;;;;;;;2.40;99.90;;;;;;8423295;28;19935;-72
2024/03/08 03:57:49;;;;;;;;;;;2.30;99.90;;;;;;8423975;28;19979;-73
2024/03/08 04:01:50;;;;;;;;;;;2.30;99.90;;;;;;8421484;28;19927;-72
2024/03/08 04:05:53;;;;;;;;;;;2.30;99.90;;;;;;8423778;28;19920;-72
2024/03/08 04:14:58;;;;;;;;;;;2.20;99.90;;;;;;8417026;28;19923;-72
2024/03/08 04:29:07;;;;;;;;;;;2.20;99.90;;;;;;8423117;28;19915;-72
2024/03/08 04:33:08;;;;;;;;;;;2.10;99.90;;;;;;8402739;28;19934;-72
2024/03/08 04:37:13;;;;;;;;;;;2.10;99.90;;;;;;8404978;28;19985;-72
2024/03/08 04:41:15;;;;;;;;;;;2.10;99.90;;;;;;8420811;28;19920;-72
2024/03/08 04:45:17;;;;;;;;;;;2.10;99.90;;;;;;8422346;28;19923;-72
2024/03/08 04:49:19;;;;;;;;;;;2.00;99.90;;;;;;8425919;28;19920;-72
2024/03/08 04:53:20;;;;;;;;;;;2.00;99.90;;;;;;8423986;28;19967;-72
2024/03/08 04:57:22;;;;;;;;;;;2.00;99.90;;;;;;8425229;28;19927;-72
2024/03/08 05:01:24;;;;;;;;;;;2.00;99.90;;;;;;8405607;28;20272;-72
2024/03/08 05:10:29;;;;;;;;;;;2.00;99.90;;;;;;8422686;28;19914;-72
2024/03/08 05:14:31;;;;;;;;;;;1.90;99.90;;;;;;8402867;28;19974;-72
2024/03/08 05:18:36;;;;;;;;;;;1.90;99.90;;;;;;8404263;28;19920;-72
2024/03/08 05:22:37;;;;;;;;;;;1.90;99.90;;;;;;8419727;28;19920;-72
2024/03/08 05:26:39;;;;;;;;;;;1.90;99.90;;;;;;8408223;28;20367;-72
2024/03/08 05:30:41;;;;;;;;;;;1.90;99.90;;;;;;8427250;28;20414;-72
2024/03/08 05:34:44;;;;;;;;;;;1.90;99.90;;;;;;8410161;28;19988;-72
2024/03/08 05:38:46;;;;;;;;;;;1.90;99.90;;;;;;8412256;28;19928;-72
2024/03/08 05:42:47;;;;;;;;;;;1.90;99.90;;;;;;8391915;28;19973;-72
2024/03/08 05:46:50;;;;;;;;;;;1.80;99.90;;;;;;8393603;28;19920;-72
2024/03/08 05:50:52;;;;;;;;;;;1.80;99.90;;;;;;8393521;28;20438;-72
2024/03/08 05:54:53;;;;;;;;;;;1.80;99.90;;;;;;8392065;28;20264;-72
2024/03/08 05:58:56;;;;;;;;;;;1.80;99.90;;;;;;8395862;28;19920;-72
2024/03/08 06:02:58;;;;;;;;;;;1.70;99.90;;;;;;8392186;28;19982;-72
2024/03/08 06:07:00;;;;;;;;;;;1.70;99.90;;;;;;8391693;28;19920;-72
2024/03/08 06:11:05;;;;;;;;;;;1.60;99.90;;;;;;8392783;28;19928;-72
2024/03/08 06:15:08;;;;;;;;;;;1.60;99.90;;;;;;8386096;28;19924;-72
2024/03/08 06:19:10;;;;;;;;;;;1.60;99.90;;;;;;8392614;28;19928;-72
2024/03/08 06:23:12;;;;;;;;;;;1.60;99.90;;;;;;8380526;28;20455;-72
2024/03/08 06:27:13;;;;;;;;;;;1.60;99.90;;;;;;8386605;28;19966;-72
2024/03/08 06:31:15;;;;;;;;;;;1.60;99.90;;;;;;8388966;28;19951;-72
2024/03/08 06:40:21;;;;;;;;;;;1.60;99.90;;;;;;8389426;28;20318;-72
2024/03/08 06:44:23;;;;;;;;;;;1.70;99.90;;;;;;8392317;28;19963;-72
2024/03/08 06:48:24;;;;;;;;;;;1.70;99.90;;;;;;8392357;28;19920;-72
2024/03/08 06:52:26;;;;;;;;;;;1.80;99.90;;;;;;8390014;28;19974;-72
2024/03/08 06:56:29;;;;;;;;;;;1.80;99.90;;;;;;8389857;28;20213;-72
2024/03/08 07:00:31;;;;;;;;;;;1.90;99.90;;;;;;8395583;28;19921;-72
2024/03/08 07:09:36;;;;;;;;;;;2.10;99.90;;;;;;8392136;28;19915;-72
2024/03/08 07:13:41;;;;;;;;;;;2.20;99.90;;;;;;8390669;28;19929;-72
2024/03/08 07:17:44;;;;;;;;;;;2.30;99.90;;;;;;8374652;28;19927;-72
2024/03/08 07:26:51;;;;;;;;;;;2.50;99.90;;;;;;8390648;28;20375;-72
2024/03/08 07:31:02;;;;;;;;;;;2.70;99.90;;;;;;8390860;28;19921;-73
2024/03/08 07:35:04;;;;;;;;;;;2.80;99.90;;;;;;8391218;28;19929;-72
2024/03/08 07:39:11;;;;;;;;;;;2.90;99.90;;;;;;8390785;28;19931;-72
2024/03/08 07:43:13;;;;;;;;;;;3.00;99.90;;;;;;8413028;28;19920;-72
2024/03/08 07:47:15;;;;;;;;;;;3.10;99.90;;;;;;8421806;28;19920;-72
2024/03/08 07:51:17;;;;;;;;;;;3.30;99.90;;;;;;8406824;28;19924;-73
2024/03/08 07:55:19;;;;;;;;;;;3.40;99.90;;;;;;8425169;28;19920;-72
2024/03/08 07:59:21;;;;;;;;;;;3.50;99.90;;;;;;8415396;28;19928;-72
2024/03/08 08:03:23;;;;;;;;;;;3.60;99.90;;;;;;8419307;28;19920;-72
2024/03/08 08:07:24;;;;;;;;;;;3.80;99.90;;;;;;8425002;28;19927;-73
2024/03/08 08:11:28;;;;;;;;;;;3.90;99.90;;;;;;8403672;28;19924;-72
2024/03/08 08:15:30;;;;;;;;;;;4.10;99.90;;;;;;8414799;28;20429;-73
2024/03/08 08:19:32;;;;;;;;;;;4.20;99.90;;;;;;8414902;28;20371;-72
2024/03/08 08:23:34;;;;;;;;;;;4.30;99.90;;;;;;8422657;28;19971;-72
2024/03/08 08:27:36;;;;;;;;;;;4.40;99.90;;;;;;8424756;28;19963;-73
2024/03/08 08:31:38;;;;;;;;;;;4.60;99.90;;;;;;8405727;28;19928;-73
2024/03/08 08:35:39;;;;;;;;;;;4.70;99.90;;;;;;8422958;28;19920;-73
2024/03/08 08:39:41;;;;;;;;;;;4.90;99.90;;;;;;8420597;28;20248;-73
2024/03/08 08:43:46;;;;;;;;;;;5.00;99.90;;;;;;8420656;28;19924;-73
2024/03/08 08:47:55;;;;;;;;;;;5.20;99.90;;;;;;8422369;28;19926;-73
2024/03/08 08:51:58;;;;;;;;;;;5.40;99.90;;;;;;8405453;28;19920;-73
2024/03/08 08:56:07;;;;;;;;;;;5.70;99.90;;;;;;8405566;28;19920;-72
2024/03/08 09:00:15;;;;;;;;;;;5.80;99.90;;;;;;8425420;28;20375;-73
2024/03/08 09:04:17;;;;;;;;;;;6.00;99.90;;;;;;8415312;28;19924;-72
2024/03/08 09:08:19;;;;;;;;;;;6.20;99.90;;;;;;8411005;28;19956;-72
2024/03/08 09:12:21;;;;;;;;;;;6.30;99.90;;;;;;8412109;28;19923;-72
2024/03/08 09:16:23;;;;;;;;;;;6.50;99.90;;;;;;8423479;28;19974;-73
2024/03/08 09:20:24;;;;;;;;;;;6.70;99.90;;;;;;8429521;28;19973;-73
2024/03/08 09:24:26;;;;;;;;;;;6.80;99.90;;;;;;8429612;28;20271;-73
2024/03/08 09:28:28;;;;;;;;;;;7.00;99.90;;;;;;8413556;28;19924;-80
2024/03/08 09:32:30;;;;;;;;;;;7.10;99.90;;;;;;8429484;28;19927;-75
2024/03/08 09:36:32;;;;;;;;;;;7.30;99.90;;;;;;8408748;28;19924;-76
2024/03/08 09:40:34;;;;;;;;;;;7.50;99.90;;;;;;8412985;28;19926;-81
2024/03/08 09:44:36;;;;;;;;;;;7.50;99.90;;;;;;8409666;28;19928;-76
2024/03/08 09:48:41;;;;;;;;;;;7.70;99.90;;;;;;8427817;28;19927;-77
2024/03/08 09:52:46;;;;;;;;;;;7.80;99.90;;;;;;8408732;28;20321;-74
2024/03/08 09:56:49;;;;;;;;;;;8.10;99.90;;;;;;8407267;28;19977;-73
2024/03/08 10:00:51;;;;;;;;;;;8.40;99.90;;;;;;8406444;28;19962;-74
2024/03/08 10:04:55;;;;;;;;;;;8.60;99.90;;;;;;8395193;28;20291;-76
2024/03/08 10:08:57;;;;;;;;;;;8.90;99.90;;;;;;8386978;28;20038;-74
2024/03/08 10:12:59;;;;;;;;;;;9.20;99.90;;;;;;8408445;28;19935;-73
2024/03/08 10:17:03;;;;;;;;;;;9.50;99.90;;;;;;8391688;28;19927;-73
2024/03/08 10:21:06;;;;;;;;;;;9.70;99.90;;;;;;8393529;28;20011;-73
2024/03/08 10:25:10;;;;;;;;;;;9.90;99.90;;;;;;8393723;28;19924;-73
2024/03/08 10:29:15;;;;;;;;;;;10.10;99.90;;;;;;8392689;28;19928;-73
2024/03/08 10:33:17;;;;;;;;;;;10.50;99.90;;;;;;8392681;28;19978;-73
2024/03/08 10:37:22;;;;;;;;;;;10.60;99.90;;;;;;8392522;28;20439;-73
2024/03/08 10:41:25;;;;;;;;;;;10.70;99.90;;;;;;8392833;28;19920;-73
2024/03/08 10:45:37;;;;;;;;;;;11.20;99.90;;;;;;8390902;28;19927;-73
2024/03/08 10:49:40;;;;;;;;;;;11.60;99.90;;;;;;8390349;28;20279;-73
2024/03/08 10:53:43;;;;;;;;;;;11.90;99.90;;;;;;8390796;28;20410;-73
2024/03/08 10:57:45;;;;;;;;;;;12.20;99.90;;;;;;8392595;28;19971;-73
2024/03/08 11:01:47;;;;;;;;;;;12.60;99.90;;;;;;8386577;28;19920;-73
2024/03/08 11:05:48;;;;;;;;;;;13.00;99.90;;;;;;8392604;28;19928;-73
2024/03/08 11:09:50;;;;;;;;;;;13.40;99.90;;;;;;8392232;28;19977;-73
2024/03/08 11:13:52;;;;;;;;;;;13.80;99.90;;;;;;8384560;28;20291;-73
2024/03/08 11:17:58;;;;;;;;;;;14.10;99.90;;;;;;8394271;28;19931;-73
2024/03/08 11:22:00;;;;;;;;;;;14.50;99.90;;;;;;8388247;28;20362;-73
2024/03/08 11:26:05;;;;;;;;;;;14.90;99.90;;;;;;8391552;28;19920;-73
2024/03/08 11:30:17;;;;;;;;;;;15.20;99.90;;;;;;8384966;28;19946;-73
2024/03/08 11:34:19;;;;;;;;;;;15.40;99.90;;;;;;8389648;28;19964;-73
2024/03/08 11:38:22;;;;;;;;;;;15.50;99.90;;;;;;8393870;28;19924;-73
2024/03/08 11:42:26;;;;;;;;;;;16.00;99.90;;;;;;8388339;28;19942;-73
2024/03/08 11:46:28;;;;;;;;;;;16.10;99.90;;;;;;8402932;28;20363;-71
2024/03/08 11:50:30;;;;;;;;;;;16.30;99.90;;;;;;8391405;28;19924;-71
2024/03/08 11:54:31;;;;;;;;;;;16.20;99.90;;;;;;8384832;28;19954;-72
2024/03/08 11:58:33;;;;;;;;;;;16.20;99.90;;;;;;8389666;28;20485;-71
2024/03/08 12:02:37;;;;;;;;;;;15.90;99.90;;;;;;8392478;28;20432;-71
2024/03/08 12:06:40;;;;;;;;;;;16.00;99.90;;;;;;8389244;28;19920;-71
2024/03/08 12:10:42;;;;;;;;;;;16.40;99.90;;;;;;8389966;28;20379;-71
2024/03/08 12:14:44;;;;;;;;;;;16.70;99.90;;;;;;8384436;28;19921;-71
2024/03/08 12:18:46;;;;;;;;;;;17.00;99.90;;;;;;8385723;28;19966;-71
2024/03/08 12:22:48;;;;;;;;;;;17.20;99.90;;;;;;8389481;28;19921;-71
2024/03/08 12:26:51;;;;;;;;;;;17.30;99.90;;;;;;8382829;28;19928;-72
2024/03/08 12:30:54;;;;;;;;;;;17.30;99.90;;;;;;8394006;28;19926;-72
2024/03/08 12:34:56;;;;;;;;;;;17.30;99.90;;;;;;8387872;28;19969;-73
2024/03/08 12:38:59;;;;;;;;;;;17.00;99.90;;;;;;8389114;28;20015;-73
2024/03/08 12:43:01;;;;;;;;;;;16.60;99.90;;;;;;8371760;28;19924;-73
2024/03/08 12:47:05;;;;;;;;;;;16.20;99.90;;;;;;8368413;28;20446;-73
2024/03/08 12:51:07;;;;;;;;;;;16.00;99.90;;;;;;8363172;28;19975;-73
2024/03/08 12:55:09;;;;;;;;;;;15.90;99.90;;;;;;8367963;28;19940;-73
2024/03/08 12:59:12;;;;;;;;;;;16.20;99.90;;;;;;8362621;28;19925;-73
2024/03/08 13:03:14;;;;;;;;;;;16.40;99.90;;;;;;8366016;28;19928;-73
2024/03/08 13:07:16;;;;;;;;;;;16.10;99.90;;;;;;8379669;28;20447;-73
2024/03/08 13:11:19;;;;;;;;;;;15.40;99.90;;;;;;8363721;28;19932;-73
2024/03/08 13:15:21;;;;;;;;;;;14.90;99.90;;;;;;8367596;28;19932;-73
2024/03/08 13:19:23;;;;;;;;;;;14.60;99.90;;;;;;8397066;28;19939;-73
2024/03/08 13:23:24;;;;;;;;;;;14.40;99.90;;;;;;8359772;28;19924;-73
2024/03/08 13:27:27;;;;;;;;;;;14.30;99.90;;;;;;8363927;28;19925;-73
2024/03/08 13:31:29;;;;;;;;;;;14.20;99.90;;;;;;8357191;28;20376;-73
2024/03/08 13:35:31;;;;;;;;;;;14.20;99.90;;;;;;8367624;28;19929;-73
2024/03/08 13:39:40;;;;;;;;;;;14.00;99.90;;;;;;8368107;28;19925;-73
2024/03/08 13:43:42;;;;;;;;;;;14.10;99.90;;;;;;8383258;28;20295;-73
2024/03/08 13:47:44;;;;;;;;;;;14.10;99.90;;;;;;8394937;28;19931;-73
2024/03/08 13:51:46;;;;;;;;;;;14.00;99.90;;;;;;8399776;28;19928;-73
2024/03/08 13:55:47;;;;;;;;;;;13.90;99.90;;;;;;8374076;28;19985;-73
2024/03/08 13:59:51;;;;;;;;;;;13.90;99.90;;;;;;8397249;28;19930;-73
2024/03/08 14:03:52;;;;;;;;;;;14.00;99.90;;;;;;8368109;28;20374;-73
2024/03/08 14:07:55;;;;;;;;;;;14.00;99.90;;;;;;8395694;28;19924;-73
2024/03/08 14:11:58;;;;;;;;;;;14.20;99.90;;;;;;8401359;28;19929;-72
2024/03/08 14:16:00;;;;;;;;;;;14.20;99.90;;;;;;8379989;28;19932;-73
2024/03/08 14:20:02;;;;;;;;;;;14.30;99.90;;;;;;8390485;28;19925;-73
2024/03/08 14:24:04;;;;;;;;;;;14.40;99.90;;;;;;8391312;28;20299;-73
2024/03/08 14:28:07;;;;;;;;;;;14.30;99.90;;;;;;8393879;28;19928;-73
2024/03/08 14:32:10;;;;;;;;;;;14.40;99.90;;;;;;8383155;28;19989;-73
2024/03/08 14:36:13;;;;;;;;;;;15.10;99.90;;;;;;8387336;28;19928;-73
2024/03/08 14:40:15;;;;;;;;;;;16.20;99.90;;;;;;8394228;28;19924;-73
2024/03/08 14:44:19;;;;;;;;;;;17.20;99.90;;;;;;8390716;28;20479;-73
2024/03/08 14:48:21;;;;;;;;;;;17.90;99.90;;;;;;8393156;28;19932;-72
2024/03/08 14:52:29;;;;;;;;;;;18.60;99.90;;;;;;8388632;28;19997;-71
2024/03/08 14:56:31;;;;;;;;;;;19.10;99.90;;;;;;8396103;28;20319;-71
2024/03/08 15:00:33;;;;;;;;;;;19.30;99.90;;;;;;8398818;28;20289;-71
2024/03/08 15:04:35;;;;;;;;;;;19.20;99.90;;;;;;8394706;28;20584;-71
2024/03/08 15:08:38;;;;;;;;;;;19.00;99.90;;;;;;8401632;28;19928;-72
2024/03/08 15:12:39;;;;;;;;;;;18.80;99.90;;;;;;8389721;28;19928;-72
2024/03/08 15:16:42;;;;;;;;;;;18.60;99.90;;;;;;8397701;28;19955;-71
2024/03/08 15:20:47;;;;;;;;;;;18.30;99.90;;;;;;8400571;28;19987;-71
2024/03/08 15:24:48;;;;;;;;;;;18.10;99.90;;;;;;8375809;28;19924;-71
2024/03/08 15:28:51;;;;;;;;;;;17.70;99.90;;;;;;8392798;28;19932;-71
2024/03/08 15:32:56;;;;;;;;;;;17.60;99.90;;;;;;8394509;28;19925;-71
2024/03/08 15:37:02;;;;;;;;;;;17.30;99.90;;;;;;8379546;28;20345;-71
2024/03/08 15:41:10;;;;;;;;;;;17.00;99.90;;;;;;8385602;28;19924;-71
2024/03/08 15:45:12;;;;;;;;;;;17.10;99.90;;;;;;8389387;28;20356;-71
2024/03/08 15:49:14;;;;;;;;;;;17.20;99.90;;;;;;8389696;28;19970;-71
2024/03/08 15:53:15;;;;;;;;;;;17.20;99.90;;;;;;8390074;28;19932;-71
2024/03/08 15:57:20;;;;;;;;;;;17.20;99.90;;;;;;8390404;28;19932;-71
2024/03/08 16:01:22;;;;;;;;;;;17.00;99.90;;;;;;8388811;28;19932;-71
2024/03/08 16:05:24;;;;;;;;;;;16.80;99.90;;;;;;8382787;28;20334;-72
2024/03/08 16:09:29;;;;;;;;;;;16.70;99.90;;;;;;8388121;28;19971;-71
2024/03/08 16:13:32;;;;;;;;;;;16.30;99.90;;;;;;8388059;28;19924;-71
2024/03/08 16:17:34;;;;;;;;;;;16.00;99.90;;;;;;8403436;28;19929;-70
2024/03/08 16:21:36;;;;;;;;;;;15.70;99.90;;;;;;8378142;28;19924;-71
2024/03/08 16:25:38;;;;;;;;;;;15.40;99.90;;;;;;8391617;28;20785;-71
2024/03/08 16:29:40;;;;;;;;;;;15.30;99.90;;;;;;8384241;28;19929;-71
2024/03/08 16:33:41;;;;;;;;;;;15.20;99.90;;;;;;8380349;28;19935;-71
2024/03/08 16:37:44;;;;;;;;;;;15.10;99.90;;;;;;8378454;28;19936;-71
2024/03/08 16:41:47;;;;;;;;;;;15.00;99.90;;;;;;8380312;28;19929;-71
2024/03/08 16:45:52;;;;;;;;;;;14.80;99.90;;;;;;8380915;28;19924;-70
2024/03/08 16:49:54;;;;;;;;;;;14.60;99.90;;;;;;8387051;28;20379;-70
2024/03/08 16:53:56;;;;;;;;;;;14.20;99.90;;;;;;8381442;28;19924;-71
2024/03/08 16:57:58;;;;;;;;;;;13.90;99.90;;;;;;8388934;28;19939;-71
2024/03/08 17:02:00;;;;;;;;;;;13.50;99.90;;;;;;8389467;28;19979;-71
2024/03/08 17:06:05;;;;;;;;;;;13.20;99.90;;;;;;8391850;28;19924;-71
2024/03/08 17:10:14;;;;;;;;;;;12.90;99.90;;;;;;8390585;28;20372;-71
2024/03/08 17:14:18;;;;;;;;;;;12.60;99.90;;;;;;8388357;28;20371;-71
2024/03/08 17:18:20;;;;;;;;;;;12.30;99.90;;;;;;8391871;28;19940;-71
2024/03/08 17:22:22;;;;;;;;;;;12.10;99.90;;;;;;8397282;28;19928;-71
2024/03/08 17:26:24;;;;;;;;;;;11.90;99.90;;;;;;8390981;28;19931;-71
2024/03/08 17:30:28;;;;;;;;;;;11.70;99.90;;;;;;8393246;28;19929;-71
2024/03/08 17:34:29;;;;;;;;;;;11.50;99.90;;;;;;8393095;28;20389;-70
2024/03/08 17:38:33;;;;;;;;;;;11.30;99.90;;;;;;8393963;28;19928;-70
2024/03/08 17:42:35;;;;;;;;;;;11.10;99.90;;;;;;8380529;28;19925;-70
2024/03/08 17:46:38;;;;;;;;;;;11.00;99.90;;;;;;8397675;28;19954;-70
2024/03/08 17:50:40;;;;;;;;;;;10.80;99.90;;;;;;8388758;28;19963;-71
2024/03/08 17:54:42;;;;;;;;;;;10.70;99.90;;;;;;8391495;28;19924;-70
2024/03/08 17:58:44;;;;;;;;;;;10.60;99.90;;;;;;8391080;28;19986;-71
2024/03/08 18:02:52;;;;;;;;;;;10.50;99.90;;;;;;8390073;28;19970;-71
2024/03/08 18:06:53;;;;;;;;;;;10.40;99.90;;;;;;8392236;28;19925;-71
2024/03/08 18:10:55;;;;;;;;;;;10.30;99.90;;;;;;8392651;28;20269;-71
2024/03/08 18:15:25;;;;;;;;;;;10.20;99.90;;;;;;8393800;28;20372;-70
2024/03/08 18:19:27;;;;;;;;;;;10.10;99.90;;;;;;8390678;28;19974;-70
2024/03/08 18:23:29;;;;;;;;;;;10.00;99.90;;;;;;8395808;28;20295;-70
2024/03/08 18:27:30;;;;;;;;;;;10.00;99.90;;;;;;8388059;28;19932;-70
2024/03/08 18:31:32;;;;;;;;;;;10.00;99.90;;;;;;8393759;28;19924;-70
2024/03/08 18:35:34;;;;;;;;;;;9.90;99.90;;;;;;8391184;28;19924;-71
2024/03/08 18:39:37;;;;;;;;;;;9.80;99.90;;;;;;8393550;28;19986;-70
2024/03/08 18:43:39;;;;;;;;;;;9.80;99.90;;;;;;8390797;28;19927;-70
2024/03/08 18:47:41;;;;;;;;;;;9.70;99.90;;;;;;8392012;28;20383;-70
2024/03/08 18:51:43;;;;;;;;;;;9.60;99.90;;;;;;8379284;28;19935;-71
2024/03/08 18:55:45;;;;;;;;;;;9.50;99.90;;;;;;8392108;28;19940;-70
2024/03/08 18:59:49;;;;;;;;;;;9.40;99.90;;;;;;8400507;28;20391;-71
2024/03/08 19:03:51;;;;;;;;;;;9.30;99.90;;;;;;8396906;28;20135;-71
2024/03/08 19:07:53;;;;;;;;;;;9.30;99.90;;;;;;8399610;28;19932;-71
2024/03/08 19:11:56;;;;;;;;;;;9.30;99.90;;;;;;8377099;28;20388;-71
2024/03/08 19:15:58;;;;;;;;;;;9.20;99.90;;;;;;8395157;28;20362;-70
2024/03/08 19:20:00;;;;;;;;;;;9.10;99.90;;;;;;8392878;28;19932;-70
2024/03/08 19:24:02;;;;;;;;;;;9.00;99.90;;;;;;8374059;28;20153;-71
2024/03/08 19:28:04;;;;;;;;;;;9.00;99.90;;;;;;8393016;28;19931;-70
2024/03/08 19:32:06;;;;;;;;;;;8.90;99.90;;;;;;8391030;28;20013;-70
2024/03/08 19:36:12;;;;;;;;;;;8.90;99.90;;;;;;8393596;28;19932;-70
2024/03/08 19:40:20;;;;;;;;;;;8.80;99.90;;;;;;8391997;28;19940;-70
2024/03/08 19:44:23;;;;;;;;;;;8.80;99.90;;;;;;8383681;28;19940;-70
2024/03/08 19:48:25;;;;;;;;;;;8.80;99.90;;;;;;8390428;28;19959;-70
2024/03/08 19:52:27;;;;;;;;;;;8.70;99.90;;;;;;8392708;28;19924;-70
2024/03/08 19:56:29;;;;;;;;;;;8.60;99.90;;;;;;8401098;28;19929;-70
2024/03/08 20:00:33;;;;;;;;;;;8.60;99.90;;;;;;8398934;28;20307;-70
2024/03/08 20:04:35;;;;;;;;;;;8.50;99.90;;;;;;8380855;28;20375;-70
2024/03/08 20:08:40;;;;;;;;;;;8.50;99.90;;;;;;8390663;28;19928;-70
2024/03/08 20:12:43;;;;;;;;;;;8.40;99.90;;;;;;8383862;28;20291;-72
2024/03/08 20:16:47;;;;;;;;;;;8.40;99.90;;;;;;8394002;28;19928;-73
2024/03/08 20:20:49;;;;;;;;;;;8.30;99.90;;;;;;8388499;28;20097;-72
2024/03/08 20:24:50;;;;;;;;;;;8.30;99.90;;;;;;8389633;28;20197;-72
2024/03/08 20:28:52;;;;;;;;;;;8.30;99.90;;;;;;8393055;28;20379;-72
2024/03/08 20:32:59;;;;;;;;;;;8.30;99.90;;;;;;8379572;28;20417;-72
2024/03/08 20:37:00;;;;;;;;;;;8.30;99.90;;;;;;8393120;28;19924;-72
2024/03/08 20:41:08;;;;;;;;;;;8.20;99.90;;;;;;8405385;28;19967;-72
2024/03/08 20:45:09;;;;;;;;;;;8.20;99.90;;;;;;8373451;28;20471;-73
2024/03/08 20:49:12;;;;;;;;;;;8.10;99.90;;;;;;8390627;28;20341;-72
2024/03/08 20:53:14;;;;;;;;;;;8.10;99.90;;;;;;8383206;28;19931;-72
2024/03/08 20:57:16;;;;;;;;;;;8.10;99.90;;;;;;8393054;28;19928;-72
2024/03/08 21:01:19;;;;;;;;;;;8.00;99.90;;;;;;8397735;28;19939;-72
2024/03/08 21:05:22;;;;;;;;;;;8.00;99.90;;;;;;8389747;28;19951;-72
2024/03/08 21:09:24;;;;;;;;;;;8.00;99.90;;;;;;8381461;28;20270;-72
2024/03/08 21:13:26;;;;;;;;;;;7.90;99.90;;;;;;8388608;28;19959;-72
2024/03/08 21:17:28;;;;;;;;;;;8.00;99.90;;;;;;8389000;28;19928;-72
2024/03/08 21:21:30;;;;;;;;;;;7.90;99.90;;;;;;8387235;28;19928;-73
2024/03/08 21:25:32;;;;;;;;;;;7.80;99.90;;;;;;8391670;28;19963;-73
2024/03/08 21:29:34;;;;;;;;;;;7.80;99.90;;;;;;8392708;28;20301;-73
2024/03/08 21:33:36;;;;;;;;;;;7.80;99.90;;;;;;8381272;28;19931;-73
2024/03/08 21:37:38;;;;;;;;;;;7.70;99.90;;;;;;8372826;28;19932;-72
2024/03/08 21:41:40;;;;;;;;;;;7.70;99.90;;;;;;8393065;28;20063;-72
2024/03/08 21:45:42;;;;;;;;;;;7.70;99.90;;;;;;8393497;28;19932;-72
2024/03/08 21:49:50;;;;;;;;;;;7.70;99.90;;;;;;8386243;28;19936;-72
2024/03/08 21:53:52;;;;;;;;;;;7.70;99.90;;;;;;8378176;28;20015;-73
2024/03/08 21:57:54;;;;;;;;;;;7.60;99.90;;;;;;8388906;28;19928;-72
2024/03/08 22:01:56;;;;;;;;;;;7.60;99.90;;;;;;8395382;28;19977;-72
2024/03/08 22:05:58;;;;;;;;;;;7.60;99.90;;;;;;8417541;28;19932;-72
2024/03/08 22:09:59;;;;;;;;;;;7.50;99.90;;;;;;8426934;28;20330;-72
2024/03/08 22:14:01;;;;;;;;;;;7.50;99.90;;;;;;8423102;28;20020;-72
2024/03/08 22:18:03;;;;;;;;;;;7.50;99.90;;;;;;8405459;28;19924;-72
2024/03/08 22:22:04;;;;;;;;;;;7.40;99.90;;;;;;8407738;28;19932;-73
2024/03/08 22:26:12;;;;;;;;;;;7.40;99.90;;;;;;8424397;28;19932;-72
2024/03/08 22:30:20;;;;;;;;;;;7.40;99.90;;;;;;8424269;28;20375;-72
2024/03/08 22:34:22;;;;;;;;;;;7.40;99.90;;;;;;8406426;28;19924;-72
2024/03/08 22:38:24;;;;;;;;;;;7.30;99.90;;;;;;8424027;28;19977;-73
2024/03/08 22:42:27;;;;;;;;;;;7.30;99.90;;;;;;8423917;28;19924;-73
2024/03/08 22:46:30;;;;;;;;;;;7.30;99.90;;;;;;8424399;28;19924;-72
2024/03/08 22:50:32;;;;;;;;;;;7.30;99.90;;;;;;8405259;28;19932;-73
2024/03/08 22:54:34;;;;;;;;;;;7.20;99.90;;;;;;8422380;28;19936;-73
2024/03/08 22:58:36;;;;;;;;;;;7.20;99.90;;;;;;8406314;28;19954;-73
2024/03/08 23:02:38;;;;;;;;;;;7.20;99.90;;;;;;8404850;28;19978;-72
2024/03/08 23:06:43;;;;;;;;;;;7.20;99.90;;;;;;8403902;28;19924;-72
2024/03/08 23:10:45;;;;;;;;;;;7.10;99.90;;;;;;8423371;28;19975;-72
2024/03/08 23:14:47;;;;;;;;;;;7.10;99.90;;;;;;8400630;28;19924;-72
2024/03/08 23:18:49;;;;;;;;;;;7.00;99.90;;;;;;8420866;28;19928;-72
2024/03/08 23:22:51;;;;;;;;;;;7.00;99.90;;;;;;8423353;28;20337;-72
2024/03/08 23:26:52;;;;;;;;;;;7.00;99.90;;;;;;8405507;28;19978;-72
2024/03/08 23:30:55;;;;;;;;;;;7.00;99.90;;;;;;8423164;28;19924;-72
2024/03/08 23:34:56;;;;;;;;;;;7.00;99.90;;;;;;8423339;28;19924;-72
2024/03/08 23:38:59;;;;;;;;;;;7.00;99.90;;;;;;8421646;28;19932;-72
2024/03/08 23:43:01;;;;;;;;;;;7.00;99.90;;;;;;8422829;28;19932;-72
2024/03/08 23:47:05;;;;;;;;;;;6.90;99.90;;;;;;8407358;28;19940;-72
2024/03/08 23:51:06;;;;;;;;;;;6.90;99.90;;;;;;8403397;28;19954;-72
2024/03/08 23:55:09;;;;;;;;;;;6.90;99.90;;;;;;8421441;28;19928;-72
2024/03/08 23:59:11;;;;;;;;;;;6.90;99.90;;;;;;8405189;28;19924;-72
